createdAt,value
2023-02-11T00:01:34.775Z,102324.67
2023-02-11T00:04:04.452Z,102325.83
2023-02-11T00:06:34.842Z,102317.98
2023-02-11T00:09:04.238Z,102318.23
2023-02-11T00:11:32.554Z,102322.30
2023-02-11T00:14:04.863Z,102320.69
2023-02-11T00:16:33.036Z,102315.05
2023-02-11T00:19:02.820Z,102307.08
2023-02-11T00:21:32.203Z,102300.29
2023-02-11T00:24:02.362Z,102297.73
2023-02-11T00:26:34.391Z,102298.37
2023-02-11T00:29:03.962Z,102301.55
2023-02-11T00:31:33.659Z,102302.79
2023-02-11T00:34:02.151Z,102301.88
2023-02-11T00:36:30.276Z,102302.34
2023-02-11T00:38:59.670Z,102302.16
2023-02-11T00:41:30.045Z,102300.45
2023-02-11T00:44:01.164Z,102296.16
2023-02-11T00:46:29.742Z,102300.10
2023-02-11T00:48:58.122Z,102299.52
2023-02-11T00:51:28.492Z,102300.91
2023-02-11T00:53:57.338Z,102295.14
2023-02-11T00:56:25.606Z,102289.45
2023-02-11T00:58:54.219Z,102283.45
2023-02-11T01:01:22.204Z,102277.02
2023-02-11T01:03:50.304Z,102271.47
2023-02-11T01:06:18.995Z,102270.62
2023-02-11T01:08:46.830Z,102260.78
2023-02-11T01:11:18.383Z,102256.69
2023-02-11T01:13:48.016Z,102255.17
2023-02-11T01:16:19.387Z,102253.75
2023-02-11T01:18:48.559Z,102252.05
2023-02-11T01:21:19.066Z,102244.78
2023-02-11T01:23:47.063Z,102232.58
2023-02-11T01:26:14.939Z,102226.54
2023-02-11T01:28:42.980Z,102224.78
2023-02-11T01:31:11.121Z,102228.64
2023-02-11T01:33:39.106Z,102236.83
2023-02-11T01:36:11.568Z,102240.73
2023-02-11T01:38:41.277Z,102240.59
2023-02-11T01:41:14.601Z,102234.28
2023-02-11T01:43:46.853Z,102233.55
2023-02-11T01:46:20.883Z,102232.27
2023-02-11T01:48:55.535Z,102227.41
2023-02-11T01:51:48.315Z,102227.70
2023-02-11T01:54:40.850Z,102234.64
2023-02-11T01:57:22.315Z,102234.29
2023-02-11T02:00:14.477Z,102231.47
2023-02-11T02:02:54.319Z,102229.71
2023-02-11T02:05:34.770Z,102224.89
2023-02-11T02:08:21.368Z,102223.13
2023-02-11T02:10:56.448Z,102217.98
2023-02-11T02:13:25.345Z,102219.25
2023-02-11T02:16:00.088Z,102212.58
2023-02-11T02:18:31.069Z,102211.20
2023-02-11T02:21:28.277Z,102206.52
2023-02-11T02:24:13.870Z,102209.56
2023-02-11T02:27:00.533Z,102202.31
2023-02-11T02:29:37.866Z,102198.48
2023-02-11T02:32:35.291Z,102191.61
2023-02-11T02:35:34.300Z,102193.88
2023-02-11T02:38:02.134Z,102194.31
2023-02-11T02:40:34.992Z,102193.85
2023-02-11T02:43:04.213Z,102191.65
2023-02-11T02:45:33.323Z,102194.61
2023-02-11T02:48:01.147Z,102200.31
2023-02-11T02:50:33.933Z,102203.42
2023-02-11T02:53:20.717Z,102201.94
2023-02-11T02:56:06.524Z,102202.14
2023-02-11T02:59:03.634Z,102201.70
2023-02-11T03:01:56.256Z,102196.60
2023-02-11T03:04:37.633Z,102193.11
2023-02-11T03:07:29.732Z,102189.55
2023-02-11T03:10:03.980Z,102185.91
2023-02-11T03:12:34.982Z,102184.09
2023-02-11T03:15:05.386Z,102185.86
2023-02-11T03:17:36.038Z,102186.28
2023-02-11T03:20:06.971Z,102186.97
2023-02-11T03:22:41.555Z,102186.73
2023-02-11T03:25:09.940Z,102185.68
2023-02-11T03:27:47.209Z,102186.89
2023-02-11T03:30:23.966Z,102188.45
2023-02-11T03:33:14.785Z,102190.41
2023-02-11T03:35:51.030Z,102184.63
2023-02-11T03:38:34.957Z,102184.90
2023-02-11T03:41:07.018Z,102180.71
2023-02-11T03:43:42.134Z,102179.27
2023-02-11T03:46:12.564Z,102173.17
2023-02-11T03:48:55.124Z,102170.52
2023-02-11T03:51:25.639Z,102160.77
2023-02-11T03:53:57.894Z,102158.86
2023-02-11T03:56:31.081Z,102156.95
2023-02-11T03:58:59.009Z,102154.64
2023-02-11T04:01:27.173Z,102148.34
2023-02-11T04:03:55.162Z,102148.33
2023-02-11T04:06:23.140Z,102147.93
2023-02-11T04:08:51.031Z,102146.21
2023-02-11T04:11:19.112Z,102146.94
2023-02-11T04:13:46.987Z,102143.54
2023-02-11T04:16:15.077Z,102137.85
2023-02-11T04:18:42.984Z,102139.91
2023-02-11T04:21:11.200Z,102143.45
2023-02-11T04:23:39.140Z,102142.27
2023-02-11T04:26:07.248Z,102139.94
2023-02-11T04:28:36.410Z,102139.02
2023-02-11T04:31:04.884Z,102136.84
2023-02-11T04:33:32.927Z,102136.67
2023-02-11T04:36:00.798Z,102134.71
2023-02-11T04:38:28.609Z,102136.55
2023-02-11T04:40:58.257Z,102134.05
2023-02-11T04:43:26.229Z,102132.67
2023-02-11T04:45:58.460Z,102132.52
2023-02-11T04:48:26.754Z,102131.46
2023-02-11T04:50:54.688Z,102127.80
2023-02-11T04:53:22.980Z,102122.81
2023-02-11T04:55:52.088Z,102119.78
2023-02-11T04:58:20.545Z,102106.56
2023-02-11T05:00:48.335Z,102110.85
2023-02-11T05:03:16.553Z,102110.40
2023-02-11T05:05:44.468Z,102106.73
2023-02-11T05:08:12.536Z,102100.99
2023-02-11T05:10:40.404Z,102098.34
2023-02-11T05:13:08.317Z,102094.86
2023-02-11T05:15:36.267Z,102093.54
2023-02-11T05:18:04.679Z,102095.19
2023-02-11T05:20:32.562Z,102098.43
2023-02-11T05:23:00.418Z,102087.79
2023-02-11T05:25:28.243Z,102087.42
2023-02-11T05:27:56.241Z,102089.24
2023-02-11T05:30:24.058Z,102084.45
2023-02-11T05:32:52.336Z,102083.30
2023-02-11T05:35:20.248Z,102086.97
2023-02-11T05:37:48.092Z,102088.42
2023-02-11T05:40:16.450Z,102085.73
2023-02-11T05:42:44.478Z,102077.34
2023-02-11T05:45:12.474Z,102071.43
2023-02-11T05:47:40.339Z,102073.92
2023-02-11T05:50:08.842Z,102075.84
2023-02-11T05:52:36.792Z,102080.69
2023-02-11T05:55:05.558Z,102082.62
2023-02-11T05:57:33.461Z,102088.31
2023-02-11T06:00:01.542Z,102093.23
2023-02-11T06:02:40.386Z,102100.86
2023-02-11T06:05:09.301Z,102102.92
2023-02-11T06:07:39.708Z,102100.06
2023-02-11T06:10:08.699Z,102097.13
2023-02-11T06:12:39.410Z,102100.92
2023-02-11T06:15:07.845Z,102102.77
2023-02-11T06:17:37.505Z,102108.98
2023-02-11T06:20:08.440Z,102112.02
2023-02-11T06:22:36.573Z,102112.17
2023-02-11T06:25:04.788Z,102112.02
2023-02-11T06:27:32.766Z,102123.48
2023-02-11T06:30:00.615Z,102121.52
2023-02-11T06:32:43.379Z,102125.94
2023-02-11T06:35:12.869Z,102127.62
2023-02-11T06:37:42.292Z,102124.80
2023-02-11T06:40:11.830Z,102127.23
2023-02-11T06:42:39.935Z,102131.91
2023-02-11T06:45:13.164Z,102131.14
2023-02-11T06:47:41.659Z,102124.36
2023-02-11T06:50:14.089Z,102120.79
2023-02-11T06:52:42.059Z,102118.86
2023-02-11T06:55:10.251Z,102110.45
2023-02-11T06:57:43.510Z,102109.77
2023-02-11T07:00:12.482Z,102108.14
2023-02-11T07:02:40.577Z,102103.29
2023-02-11T07:05:09.434Z,102099.06
2023-02-11T07:07:37.944Z,102096.20
2023-02-11T07:10:07.024Z,102096.08
2023-02-11T07:12:35.043Z,102093.07
2023-02-11T07:15:03.436Z,102087.08
2023-02-11T07:17:31.345Z,102083.86
2023-02-11T07:19:59.202Z,102083.36
2023-02-11T07:22:27.425Z,102081.31
2023-02-11T07:24:55.329Z,102079.64
2023-02-11T07:27:23.334Z,102071.65
2023-02-11T07:29:51.437Z,102071.02
2023-02-11T07:32:19.613Z,102074.67
2023-02-11T07:34:48.633Z,102072.15
2023-02-11T07:37:16.811Z,102070.99
2023-02-11T07:39:44.689Z,102066.01
2023-02-11T07:42:12.777Z,102066.58
2023-02-11T07:44:40.709Z,102059.39
2023-02-11T07:47:08.879Z,102056.79
2023-02-11T07:49:36.877Z,102051.13
2023-02-11T07:52:04.861Z,102051.29
2023-02-11T07:54:32.925Z,102047.55
2023-02-11T07:57:00.772Z,102035.30
2023-02-11T07:59:35.928Z,102033.42
2023-02-11T08:02:04.040Z,102022.20
2023-02-11T08:04:32.072Z,102005.58
2023-02-11T08:07:00.057Z,102000.10
2023-02-11T08:09:27.975Z,101999.73
2023-02-11T08:11:55.905Z,102008.46
2023-02-11T08:14:25.381Z,102017.06
2023-02-11T08:16:53.488Z,102028.74
2023-02-11T08:19:21.507Z,102026.21
2023-02-11T08:21:50.101Z,102019.89
2023-02-11T08:24:17.946Z,102020.79
2023-02-11T08:26:46.052Z,102025.80
2023-02-11T08:29:15.767Z,102023.70
2023-02-11T08:31:47.235Z,102019.05
2023-02-11T08:34:18.540Z,102018.69
2023-02-11T08:36:47.914Z,102008.72
2023-02-11T08:39:20.457Z,101998.02
2023-02-11T08:41:54.057Z,102004.52
2023-02-11T08:44:23.507Z,102004.59
2023-02-11T08:46:51.993Z,102003.44
2023-02-11T08:49:20.579Z,101997.90
2023-02-11T08:51:49.725Z,101992.14
2023-02-11T08:54:18.013Z,101993.11
2023-02-11T08:56:46.381Z,101998.67
2023-02-11T08:59:15.662Z,102008.90
2023-02-11T09:01:44.665Z,102004.52
2023-02-11T09:04:13.068Z,102001.12
2023-02-11T09:06:41.469Z,102001.70
2023-02-11T09:09:13.630Z,102005.67
2023-02-11T09:11:43.325Z,102011.91
2023-02-11T09:14:23.179Z,102010.10
2023-02-11T09:16:51.934Z,102010.10
2023-02-11T09:19:21.270Z,102017.52
2023-02-11T09:21:49.617Z,102017.83
2023-02-11T09:24:18.598Z,102012.98
2023-02-11T09:26:46.645Z,102014.66
2023-02-11T09:29:14.573Z,102010.88
2023-02-11T09:31:42.801Z,102011.73
2023-02-11T09:34:12.183Z,102018.11
2023-02-11T09:36:41.596Z,102017.66
2023-02-11T09:39:14.481Z,102015.11
2023-02-11T09:41:54.599Z,102022.67
2023-02-11T09:44:27.220Z,102027.55
2023-02-11T09:46:59.817Z,102020.74
2023-02-11T09:49:45.404Z,102022.17
2023-02-11T09:52:53.053Z,102021.86
2023-02-11T09:55:27.041Z,102015.04
2023-02-11T09:57:56.380Z,102003.37
2023-02-11T10:00:34.625Z,102003.24
2023-02-11T10:03:38.809Z,102005.02
2023-02-11T10:06:22.110Z,102002.33
2023-02-11T10:09:12.943Z,101997.56
2023-02-11T10:11:59.476Z,101986.58
2023-02-11T10:15:09.633Z,101977.64
2023-02-11T10:18:22.696Z,101965.42
2023-02-11T10:21:23.529Z,101946.17
2023-02-11T10:23:57.306Z,101950.15
2023-02-11T10:26:30.989Z,101952.06
2023-02-11T10:29:02.332Z,101939.81
2023-02-11T10:31:42.069Z,101928.43
2023-02-11T10:34:11.858Z,101927.05
2023-02-11T10:36:43.405Z,101922.75
2023-02-11T10:39:13.224Z,101922.91
2023-02-11T10:41:46.298Z,101917.58
2023-02-11T10:44:50.128Z,101914.80
2023-02-11T10:47:22.807Z,101910.84
2023-02-11T10:49:51.239Z,101907.56
2023-02-11T10:52:30.607Z,101912.20
2023-02-11T10:55:24.410Z,101912.20
2023-02-11T10:58:02.981Z,101909.95
2023-02-11T11:00:36.144Z,101908.92
2023-02-11T11:03:17.750Z,101907.53
2023-02-11T11:05:47.268Z,101902.21
2023-02-11T11:08:16.599Z,101901.89
2023-02-11T11:11:05.163Z,101895.67
2023-02-11T11:13:42.524Z,101891.71
2023-02-11T11:16:13.221Z,101887.23
2023-02-11T11:18:43.917Z,101879.99
2023-02-11T11:21:33.609Z,101877.06
2023-02-11T11:24:03.904Z,101875.34
2023-02-11T11:26:50.846Z,101877.06
2023-02-11T11:29:26.962Z,101875.54
2023-02-11T11:32:04.869Z,101868.65
2023-02-11T11:34:32.849Z,101862.45
2023-02-11T11:37:10.409Z,101861.95
2023-02-11T11:39:40.025Z,101857.63
2023-02-11T11:42:29.272Z,101852.80
2023-02-11T11:45:02.618Z,101842.27
2023-02-11T11:47:41.534Z,101835.35
2023-02-11T11:50:28.128Z,101830.01
2023-02-11T11:53:25.688Z,101823.96
2023-02-11T11:56:30.096Z,101821.37
2023-02-11T11:59:03.722Z,101821.90
2023-02-11T12:02:06.221Z,101819.32
2023-02-11T12:04:38.401Z,101814.66
2023-02-11T12:07:12.720Z,101805.71
2023-02-11T12:09:59.121Z,101798.45
2023-02-11T12:12:39.362Z,101793.78
2023-02-11T12:15:39.493Z,101786.73
2023-02-11T12:18:54.186Z,101770.69
2023-02-11T12:21:52.985Z,101765.33
2023-02-11T12:24:48.990Z,101763.59
2023-02-11T12:27:29.874Z,101760.52
2023-02-11T12:30:08.078Z,101756.88
2023-02-11T12:33:09.761Z,101753.06
2023-02-11T12:36:00.205Z,101750.80
2023-02-11T12:38:52.309Z,101748.71
2023-02-11T12:42:24.042Z,101743.17
2023-02-11T12:45:04.084Z,101740.56
2023-02-11T12:47:56.701Z,101737.83
2023-02-11T12:50:52.944Z,101731.44
2023-02-11T12:53:56.410Z,101724.69
2023-02-11T12:56:38.170Z,101726.58
2023-02-11T12:59:16.166Z,101723.84
2023-02-11T13:01:45.125Z,101724.73
2023-02-11T13:04:53.960Z,101726.29
2023-02-11T13:07:32.444Z,101723.48
2023-02-11T13:10:15.673Z,101714.88
2023-02-11T13:13:07.029Z,101715.23
2023-02-11T13:15:35.547Z,101716.45
2023-02-11T13:18:13.464Z,101713.56
2023-02-11T13:20:51.790Z,101712.20
2023-02-11T13:23:44.024Z,101714.98
2023-02-11T13:26:20.873Z,101714.83
2023-02-11T13:29:17.938Z,101722.95
2023-02-11T13:31:56.571Z,101722.94
2023-02-11T13:34:44.494Z,101718.10
2023-02-11T13:37:26.660Z,101711.88
2023-02-11T13:40:20.782Z,101710.66
2023-02-11T13:42:57.931Z,101704.79
2023-02-11T13:45:29.036Z,101697.55
2023-02-11T13:48:04.529Z,101691.17
2023-02-11T13:50:39.611Z,101678.59
2023-02-11T13:53:08.971Z,101672.55
2023-02-11T13:55:38.326Z,101663.40
2023-02-11T13:58:06.280Z,101660.63
2023-02-11T14:00:34.196Z,101653.91
2023-02-11T14:03:30.209Z,101648.91
2023-02-11T14:06:29.222Z,101644.24
2023-02-11T14:09:09.676Z,101640.27
2023-02-11T14:11:40.972Z,101640.27
2023-02-11T14:14:24.424Z,101642.88
2023-02-11T14:16:58.818Z,101635.45
2023-02-11T14:19:45.135Z,101632.35
2023-02-11T14:22:27.717Z,101629.06
2023-02-11T14:24:59.453Z,101629.76
2023-02-11T14:27:27.534Z,101628.55
2023-02-11T14:30:23.068Z,101632.66
2023-02-11T14:32:57.068Z,101632.30
2023-02-11T14:35:39.556Z,101633.17
2023-02-11T14:38:34.138Z,101634.38
2023-02-11T14:41:22.522Z,101631.11
2023-02-11T14:43:55.381Z,101629.23
2023-02-11T14:46:25.305Z,101631.28
2023-02-11T14:48:57.644Z,101632.45
2023-02-11T14:51:31.584Z,101624.17
2023-02-11T14:54:24.983Z,101623.66
2023-02-11T14:57:12.440Z,101624.38
2023-02-11T14:59:52.514Z,101624.02
2023-02-11T15:02:23.934Z,101622.31
2023-02-11T15:04:52.012Z,101616.62
2023-02-11T15:07:20.052Z,101612.17
2023-02-11T15:09:53.893Z,101607.52
2023-02-11T15:12:28.353Z,101610.14
2023-02-11T15:15:00.281Z,101605.15
2023-02-11T15:17:31.934Z,101600.68
2023-02-11T15:20:01.935Z,101601.02
2023-02-11T15:22:36.506Z,101597.43
2023-02-11T15:25:07.470Z,101594.17
2023-02-11T15:27:48.312Z,101594.02
2023-02-11T15:30:22.495Z,101591.79
2023-02-11T15:32:58.143Z,101589.90
2023-02-11T15:35:35.111Z,101589.03
2023-02-11T15:38:04.400Z,101593.52
2023-02-11T15:40:35.571Z,101604.56
2023-02-11T15:43:09.116Z,101608.71
2023-02-11T15:45:41.862Z,101613.02
2023-02-11T15:48:17.388Z,101613.71
2023-02-11T15:51:01.418Z,101610.13
2023-02-11T15:53:33.027Z,101606.52
2023-02-11T15:56:08.158Z,101612.05
2023-02-11T15:58:38.383Z,101614.31
2023-02-11T16:01:07.685Z,101611.21
2023-02-11T16:03:36.369Z,101612.44
2023-02-11T16:06:35.805Z,101607.97
2023-02-11T16:09:12.758Z,101597.80
2023-02-11T16:11:47.117Z,101590.40
2023-02-11T16:14:31.188Z,101580.41
2023-02-11T16:17:04.069Z,101571.11
2023-02-11T16:19:34.038Z,101565.29
2023-02-11T16:22:09.132Z,101566.14
2023-02-11T16:24:39.279Z,101566.14
2023-02-11T16:27:28.615Z,101570.60
2023-02-11T16:29:57.971Z,101571.82
2023-02-11T16:32:30.284Z,101574.05
2023-02-11T16:35:01.382Z,101576.64
2023-02-11T16:37:29.152Z,101583.01
2023-02-11T16:39:58.296Z,101585.40
2023-02-11T16:42:26.342Z,101580.06
2023-02-11T16:44:54.406Z,101570.41
2023-02-11T16:47:27.589Z,101567.66
2023-02-11T16:49:56.950Z,101567.30
2023-02-11T16:52:25.690Z,101569.20
2023-02-11T16:54:53.866Z,101564.04
2023-02-11T16:57:24.082Z,101560.59
2023-02-11T16:59:52.994Z,101550.42
2023-02-11T17:02:30.500Z,101539.42
2023-02-11T17:05:01.934Z,101539.60
2023-02-11T17:07:30.008Z,101544.79
2023-02-11T17:09:58.265Z,101556.67
2023-02-11T17:12:27.272Z,101561.67
2023-02-11T17:14:55.308Z,101557.91
2023-02-11T17:17:24.022Z,101565.11
2023-02-11T17:19:52.074Z,101564.92
2023-02-11T17:22:20.176Z,101559.08
2023-02-11T17:24:48.213Z,101550.14
2023-02-11T17:27:16.394Z,101542.89
2023-02-11T17:29:44.454Z,101546.15
2023-02-11T17:32:12.661Z,101557.02
2023-02-11T17:34:40.935Z,101556.30
2023-02-11T17:37:09.648Z,101558.55
2023-02-11T17:39:39.891Z,101561.31
2023-02-11T17:42:08.864Z,101561.30
2023-02-11T17:44:37.354Z,101556.13
2023-02-11T17:47:05.419Z,101555.95
2023-02-11T17:49:33.487Z,101556.80
2023-02-11T17:52:01.643Z,101556.95
2023-02-11T17:54:29.672Z,101556.05
2023-02-11T17:56:58.592Z,101552.43
2023-02-11T17:59:28.571Z,101560.36
2023-02-11T18:01:56.388Z,101566.05
2023-02-11T18:04:24.422Z,101571.02
2023-02-11T18:06:53.717Z,101572.40
2023-02-11T18:09:21.663Z,101570.00
2023-02-11T18:11:52.537Z,101567.06
2023-02-11T18:14:22.282Z,101566.05
2023-02-11T18:16:52.227Z,101561.21
2023-02-11T18:19:20.679Z,101558.63
2023-02-11T18:21:50.532Z,101541.23
2023-02-11T18:24:18.723Z,101527.80
2023-02-11T18:26:46.735Z,101535.55
2023-02-11T18:29:15.033Z,101536.92
2023-02-11T18:31:43.334Z,101538.50
2023-02-11T18:34:14.832Z,101537.98
2023-02-11T18:36:42.966Z,101529.72
2023-02-11T18:39:11.069Z,101523.70
2023-02-11T18:41:41.438Z,101524.06
2023-02-11T18:44:11.063Z,101525.44
2023-02-11T18:46:39.060Z,101523.52
2023-02-11T18:49:07.339Z,101523.36
2023-02-11T18:51:35.464Z,101517.50
2023-02-11T18:54:03.690Z,101513.73
2023-02-11T18:56:31.698Z,101507.86
2023-02-11T18:59:01.463Z,101511.79
2023-02-11T19:01:34.223Z,101513.36
2023-02-11T19:04:04.681Z,101504.92
2023-02-11T19:06:36.441Z,101502.15
2023-02-11T19:09:10.102Z,101498.35
2023-02-11T19:11:53.968Z,101500.06
2023-02-11T19:14:27.299Z,101503.69
2023-02-11T19:16:57.760Z,101513.50
2023-02-11T19:19:29.615Z,101508.87
2023-02-11T19:21:59.554Z,101505.05
2023-02-11T19:24:29.062Z,101506.76
2023-02-11T19:27:00.186Z,101497.63
2023-02-11T19:29:28.691Z,101510.05
2023-02-11T19:31:56.868Z,101508.66
2023-02-11T19:34:25.136Z,101514.86
2023-02-11T19:36:54.435Z,101518.14
2023-02-11T19:39:24.816Z,101511.86
2023-02-11T19:41:53.481Z,101507.00
2023-02-11T19:44:21.637Z,101506.23
2023-02-11T19:46:52.789Z,101503.50
2023-02-11T19:49:26.047Z,101501.52
2023-02-11T19:51:55.510Z,101493.80
2023-02-11T19:54:26.259Z,101493.48
2023-02-11T19:56:54.270Z,101495.40
2023-02-11T19:59:22.480Z,101497.12
2023-02-11T20:01:50.602Z,101493.86
2023-02-11T20:04:20.146Z,101486.82
2023-02-11T20:06:49.075Z,101483.38
2023-02-11T20:09:17.233Z,101483.73
2023-02-11T20:11:45.486Z,101484.27
2023-02-11T20:14:15.316Z,101471.17
2023-02-11T20:16:48.990Z,101473.58
2023-02-11T20:19:21.581Z,101465.66
2023-02-11T20:21:56.281Z,101455.83
2023-02-11T20:24:28.250Z,101457.23
2023-02-11T20:26:56.582Z,101447.73
2023-02-11T20:29:26.028Z,101441.55
2023-02-11T20:31:55.009Z,101439.15
2023-02-11T20:34:25.037Z,101438.80
2023-02-11T20:36:53.557Z,101435.87
2023-02-11T20:39:23.541Z,101437.59
2023-02-11T20:41:52.560Z,101434.83
2023-02-11T20:44:24.544Z,101427.45
2023-02-11T20:46:54.572Z,101420.39
2023-02-11T20:49:24.650Z,101414.70
2023-02-11T20:51:54.030Z,101417.81
2023-02-11T20:54:23.695Z,101424.73
2023-02-11T20:56:57.131Z,101426.64
2023-02-11T20:59:28.649Z,101423.34
2023-02-11T21:01:57.412Z,101421.44
2023-02-11T21:04:30.886Z,101421.45
2023-02-11T21:07:01.839Z,101426.42
2023-02-11T21:09:33.368Z,101427.29
2023-02-11T21:12:03.215Z,101433.67
2023-02-11T21:14:31.316Z,101438.34
2023-02-11T21:17:14.436Z,101441.59
2023-02-11T21:19:54.564Z,101438.50
2023-02-11T21:22:22.546Z,101430.21
2023-02-11T21:24:51.121Z,101419.23
2023-02-11T21:27:20.717Z,101414.23
2023-02-11T21:29:54.444Z,101416.42
2023-02-11T21:32:28.968Z,101429.70
2023-02-11T21:35:00.543Z,101430.20
2023-02-11T21:37:29.982Z,101431.58
2023-02-11T21:39:58.284Z,101430.37
2023-02-11T21:42:29.329Z,101424.16
2023-02-11T21:44:59.444Z,101431.40
2023-02-11T21:47:27.945Z,101435.56
2023-02-11T21:49:56.130Z,101432.80
2023-02-11T21:52:25.045Z,101433.34
2023-02-11T21:54:53.015Z,101432.14
2023-02-11T21:57:20.951Z,101436.80
2023-02-11T21:59:48.964Z,101435.96
2023-02-11T22:02:16.998Z,101427.04
2023-02-11T22:04:45.074Z,101417.54
2023-02-11T22:07:13.075Z,101406.69
2023-02-11T22:09:41.882Z,101398.38
2023-02-11T22:12:10.329Z,101398.05
2023-02-11T22:14:38.914Z,101397.39
2023-02-11T22:17:08.730Z,101396.03
2023-02-11T22:19:36.730Z,101401.73
2023-02-11T22:22:05.046Z,101416.89
2023-02-11T22:24:33.376Z,101424.84
2023-02-11T22:27:02.277Z,101427.23
2023-02-11T22:29:30.385Z,101422.93
2023-02-11T22:31:58.699Z,101428.97
2023-02-11T22:34:26.692Z,101433.09
2023-02-11T22:36:54.706Z,101436.89
2023-02-11T22:39:23.046Z,101444.12
2023-02-11T22:41:53.029Z,101451.52
2023-02-11T22:44:21.892Z,101447.23
2023-02-11T22:46:51.261Z,101444.12
2023-02-11T22:49:21.461Z,101442.21
2023-02-11T22:51:49.515Z,101438.74
2023-02-11T22:54:19.278Z,101436.84
2023-02-11T22:56:51.022Z,101434.63
2023-02-11T22:59:19.426Z,101444.45
2023-02-11T23:01:47.859Z,101443.95
2023-02-11T23:04:19.190Z,101446.71
2023-02-11T23:06:47.938Z,101441.71
2023-02-11T23:09:16.692Z,101437.91
2023-02-11T23:11:44.875Z,101433.92
2023-02-11T23:14:12.934Z,101426.20
2023-02-11T23:16:41.404Z,101420.68
2023-02-11T23:19:10.893Z,101417.90
2023-02-11T23:21:39.850Z,101416.51
2023-02-11T23:24:12.205Z,101411.02
2023-02-11T23:26:42.288Z,101408.98
2023-02-11T23:29:11.185Z,101406.91
2023-02-11T23:31:43.520Z,101399.48
2023-02-11T23:34:15.082Z,101400.20
2023-02-11T23:36:44.436Z,101407.27
2023-02-11T23:39:15.567Z,101406.05
2023-02-11T23:41:44.251Z,101407.44
2023-02-11T23:44:12.202Z,101406.59
2023-02-11T23:46:40.192Z,101403.48
2023-02-11T23:49:08.146Z,101407.79
2023-02-11T23:51:36.129Z,101411.39
2023-02-11T23:54:04.188Z,101411.54
2023-02-11T23:56:32.150Z,101408.08
2023-02-11T23:59:00.124Z,101414.77
